桃園國際機場 - ATIS

METAR RCTP 281230Z 06009KT 9999 FEW020 27/22 Q1009 NOSIG RMK A2981=

站台狀態:Online
最後更新:2021-09-28 20:30:01